sensor_id;sensor_type;location;lat;lon;timestamp;temperature;humidity
17415;DHT22;8825;48.086;16.426;2022-12-29T00:01:00;2.50;67.70
17415;DHT22;8825;48.086;16.426;2022-12-29T00:03:28;2.50;67.70
17415;DHT22;8825;48.086;16.426;2022-12-29T00:05:56;2.50;67.80
17415;DHT22;8825;48.086;16.426;2022-12-29T00:08:24;2.50;67.80
17415;DHT22;8825;48.086;16.426;2022-12-29T00:10:54;2.50;67.80
17415;DHT22;8825;48.086;16.426;2022-12-29T00:13:21;2.50;67.80
17415;DHT22;8825;48.086;16.426;2022-12-29T00:16:07;2.50;67.80
17415;DHT22;8825;48.086;16.426;2022-12-29T00:18:35;2.50;67.90
17415;DHT22;8825;48.086;16.426;2022-12-29T00:21:02;2.40;68.00
17415;DHT22;8825;48.086;16.426;2022-12-29T00:23:47;2.40;68.00
17415;DHT22;8825;48.086;16.426;2022-12-29T00:26:33;2.40;68.10
17415;DHT22;8825;48.086;16.426;2022-12-29T00:29:18;2.40;68.20
17415;DHT22;8825;48.086;16.426;2022-12-29T00:32:06;2.40;68.20
17415;DHT22;8825;48.086;16.426;2022-12-29T00:34:51;2.30;68.20
17415;DHT22;8825;48.086;16.426;2022-12-29T00:37:42;2.30;68.30
17415;DHT22;8825;48.086;16.426;2022-12-29T00:40:29;2.30;68.40
17415;DHT22;8825;48.086;16.426;2022-12-29T00:43:14;2.30;68.50
17415;DHT22;8825;48.086;16.426;2022-12-29T00:46:00;2.20;68.60
17415;DHT22;8825;48.086;16.426;2022-12-29T00:48:27;2.20;68.80
17415;DHT22;8825;48.086;16.426;2022-12-29T00:51:13;2.20;68.90
17415;DHT22;8825;48.086;16.426;2022-12-29T00:53:41;2.20;68.90
17415;DHT22;8825;48.086;16.426;2022-12-29T00:56:08;2.30;69.00
17415;DHT22;8825;48.086;16.426;2022-12-29T00:58:36;2.30;69.00
17415;DHT22;8825;48.086;16.426;2022-12-29T01:01:05;2.30;69.00
17415;DHT22;8825;48.086;16.426;2022-12-29T01:03:35;2.30;69.00
17415;DHT22;8825;48.086;16.426;2022-12-29T01:06:04;2.30;69.00
17415;DHT22;8825;48.086;16.426;2022-12-29T01:08:33;2.30;68.80
17415;DHT22;8825;48.086;16.426;2022-12-29T01:11:10;2.30;68.80
17415;DHT22;8825;48.086;16.426;2022-12-29T01:13:35;2.30;68.70
17415;DHT22;8825;48.086;16.426;2022-12-29T01:16:05;2.30;68.70
17415;DHT22;8825;48.086;16.426;2022-12-29T01:18:33;2.30;68.80
17415;DHT22;8825;48.086;16.426;2022-12-29T01:21:05;2.30;68.80
17415;DHT22;8825;48.086;16.426;2022-12-29T01:23:33;2.30;68.80
17415;DHT22;8825;48.086;16.426;2022-12-29T01:26:11;2.30;68.70
17415;DHT22;8825;48.086;16.426;2022-12-29T01:28:39;2.30;68.70
17415;DHT22;8825;48.086;16.426;2022-12-29T01:31:09;2.30;68.10
17415;DHT22;8825;48.086;16.426;2022-12-29T01:33:37;2.30;68.60
17415;DHT22;8825;48.086;16.426;2022-12-29T01:36:08;2.30;68.60
17415;DHT22;8825;48.086;16.426;2022-12-29T01:38:37;2.20;68.50
17415;DHT22;8825;48.086;16.426;2022-12-29T01:41:07;2.20;68.20
17415;DHT22;8825;48.086;16.426;2022-12-29T01:46:20;2.10;67.90
17415;DHT22;8825;48.086;16.426;2022-12-29T01:48:52;2.00;67.90
17415;DHT22;8825;48.086;16.426;2022-12-29T01:51:23;2.00;67.80
17415;DHT22;8825;48.086;16.426;2022-12-29T01:53:52;1.90;67.80
17415;DHT22;8825;48.086;16.426;2022-12-29T01:56:20;1.90;67.90
17415;DHT22;8825;48.086;16.426;2022-12-29T01:58:52;1.90;68.10
17415;DHT22;8825;48.086;16.426;2022-12-29T02:01:19;1.90;68.30
17415;DHT22;8825;48.086;16.426;2022-12-29T02:03:48;1.90;68.50
17415;DHT22;8825;48.086;16.426;2022-12-29T02:06:32;1.90;68.60
17415;DHT22;8825;48.086;16.426;2022-12-29T02:08:57;1.90;68.80
17415;DHT22;8825;48.086;16.426;2022-12-29T02:11:26;1.90;69.00
17415;DHT22;8825;48.086;16.426;2022-12-29T02:13:54;2.00;69.30
17415;DHT22;8825;48.086;16.426;2022-12-29T02:31:12;2.00;69.40
17415;DHT22;8825;48.086;16.426;2022-12-29T02:36:46;2.00;69.60
17415;DHT22;8825;48.086;16.426;2022-12-29T02:42:36;2.00;69.50
17415;DHT22;8825;48.086;16.426;2022-12-29T02:45:11;2.00;69.50
17415;DHT22;8825;48.086;16.426;2022-12-29T02:47:42;1.90;69.40
17415;DHT22;8825;48.086;16.426;2022-12-29T02:50:19;1.90;69.20
17415;DHT22;8825;48.086;16.426;2022-12-29T02:52:50;1.90;69.10
17415;DHT22;8825;48.086;16.426;2022-12-29T02:55:17;1.90;69.00
17415;DHT22;8825;48.086;16.426;2022-12-29T02:57:44;1.90;68.90
17415;DHT22;8825;48.086;16.426;2022-12-29T03:00:16;1.90;68.70
17415;DHT22;8825;48.086;16.426;2022-12-29T03:03:05;1.90;68.60
17415;DHT22;8825;48.086;16.426;2022-12-29T03:11:14;1.80;68.40
17415;DHT22;8825;48.086;16.426;2022-12-29T03:14:02;1.80;68.50
17415;DHT22;8825;48.086;16.426;2022-12-29T03:19:37;1.70;68.40
17415;DHT22;8825;48.086;16.426;2022-12-29T03:22:17;1.60;68.30
17415;DHT22;8825;48.086;16.426;2022-12-29T03:25:01;1.60;68.40
17415;DHT22;8825;48.086;16.426;2022-12-29T03:27:31;1.60;68.40
17415;DHT22;8825;48.086;16.426;2022-12-29T03:30:01;1.60;68.50
17415;DHT22;8825;48.086;16.426;2022-12-29T03:32:32;1.60;68.50
17415;DHT22;8825;48.086;16.426;2022-12-29T03:35:01;1.60;68.50
17415;DHT22;8825;48.086;16.426;2022-12-29T03:37:34;1.60;68.50
17415;DHT22;8825;48.086;16.426;2022-12-29T03:40:00;1.60;68.40
17415;DHT22;8825;48.086;16.426;2022-12-29T03:42:29;1.60;68.40
17415;DHT22;8825;48.086;16.426;2022-12-29T03:44:58;1.60;68.40
17415;DHT22;8825;48.086;16.426;2022-12-29T03:47:26;1.60;68.50
17415;DHT22;8825;48.086;16.426;2022-12-29T03:49:53;1.60;68.60
17415;DHT22;8825;48.086;16.426;2022-12-29T03:52:21;1.60;68.70
17415;DHT22;8825;48.086;16.426;2022-12-29T03:54:48;1.60;68.70
17415;DHT22;8825;48.086;16.426;2022-12-29T03:57:16;1.50;68.60
17415;DHT22;8825;48.086;16.426;2022-12-29T03:59:43;1.60;68.80
17415;DHT22;8825;48.086;16.426;2022-12-29T04:02:11;1.60;68.80
17415;DHT22;8825;48.086;16.426;2022-12-29T04:04:39;1.60;68.80
17415;DHT22;8825;48.086;16.426;2022-12-29T04:07:06;1.60;68.80
17415;DHT22;8825;48.086;16.426;2022-12-29T04:09:33;1.60;68.80
17415;DHT22;8825;48.086;16.426;2022-12-29T04:12:01;1.60;68.80
17415;DHT22;8825;48.086;16.426;2022-12-29T04:14:28;1.60;68.80
17415;DHT22;8825;48.086;16.426;2022-12-29T04:16:56;1.60;68.90
17415;DHT22;8825;48.086;16.426;2022-12-29T04:19:23;1.50;68.80
17415;DHT22;8825;48.086;16.426;2022-12-29T04:21:51;1.60;68.80
17415;DHT22;8825;48.086;16.426;2022-12-29T04:24:19;1.60;68.90
17415;DHT22;8825;48.086;16.426;2022-12-29T04:26:46;1.50;68.90
17415;DHT22;8825;48.086;16.426;2022-12-29T04:29:14;1.50;68.80
17415;DHT22;8825;48.086;16.426;2022-12-29T04:31:41;1.50;68.70
17415;DHT22;8825;48.086;16.426;2022-12-29T04:34:09;1.40;68.60
17415;DHT22;8825;48.086;16.426;2022-12-29T04:36:36;1.30;68.80
17415;DHT22;8825;48.086;16.426;2022-12-29T04:39:06;1.30;68.80
17415;DHT22;8825;48.086;16.426;2022-12-29T04:41:33;1.30;69.00
17415;DHT22;8825;48.086;16.426;2022-12-29T04:44:01;1.30;69.00
17415;DHT22;8825;48.086;16.426;2022-12-29T04:46:29;1.30;69.00
17415;DHT22;8825;48.086;16.426;2022-12-29T04:48:56;1.30;69.00
17415;DHT22;8825;48.086;16.426;2022-12-29T04:51:24;1.30;69.00
17415;DHT22;8825;48.086;16.426;2022-12-29T04:53:51;1.30;69.10
17415;DHT22;8825;48.086;16.426;2022-12-29T04:56:19;1.40;69.20
17415;DHT22;8825;48.086;16.426;2022-12-29T04:58:46;1.40;69.20
17415;DHT22;8825;48.086;16.426;2022-12-29T05:01:14;1.40;69.20
17415;DHT22;8825;48.086;16.426;2022-12-29T05:03:41;1.40;69.20
17415;DHT22;8825;48.086;16.426;2022-12-29T05:06:09;1.40;69.20
17415;DHT22;8825;48.086;16.426;2022-12-29T05:08:36;1.40;69.20
17415;DHT22;8825;48.086;16.426;2022-12-29T05:11:04;1.50;69.30
17415;DHT22;8825;48.086;16.426;2022-12-29T05:13:31;1.50;69.30
17415;DHT22;8825;48.086;16.426;2022-12-29T05:15:59;1.50;69.30
17415;DHT22;8825;48.086;16.426;2022-12-29T05:18:26;1.50;69.30
17415;DHT22;8825;48.086;16.426;2022-12-29T05:20:54;1.50;69.40
17415;DHT22;8825;48.086;16.426;2022-12-29T05:23:21;1.50;69.50
17415;DHT22;8825;48.086;16.426;2022-12-29T05:25:49;1.50;69.50
17415;DHT22;8825;48.086;16.426;2022-12-29T05:28:17;1.50;69.50
17415;DHT22;8825;48.086;16.426;2022-12-29T05:30:47;1.50;69.60
17415;DHT22;8825;48.086;16.426;2022-12-29T05:33:13;1.50;69.50
17415;DHT22;8825;48.086;16.426;2022-12-29T05:35:41;1.50;69.50
17415;DHT22;8825;48.086;16.426;2022-12-29T05:38:08;1.50;69.40
17415;DHT22;8825;48.086;16.426;2022-12-29T05:40:36;1.50;69.20
17415;DHT22;8825;48.086;16.426;2022-12-29T05:43:03;1.50;69.20
17415;DHT22;8825;48.086;16.426;2022-12-29T05:45:31;1.50;69.10
17415;DHT22;8825;48.086;16.426;2022-12-29T05:47:58;1.50;69.10
17415;DHT22;8825;48.086;16.426;2022-12-29T05:50:26;1.50;68.90
17415;DHT22;8825;48.086;16.426;2022-12-29T05:52:54;1.50;68.80
17415;DHT22;8825;48.086;16.426;2022-12-29T05:55:21;1.50;68.90
17415;DHT22;8825;48.086;16.426;2022-12-29T05:57:49;1.50;69.00
17415;DHT22;8825;48.086;16.426;2022-12-29T06:00:16;1.50;69.00
17415;DHT22;8825;48.086;16.426;2022-12-29T06:02:44;1.50;69.00
17415;DHT22;8825;48.086;16.426;2022-12-29T06:05:11;1.50;68.80
17415;DHT22;8825;48.086;16.426;2022-12-29T06:07:39;1.50;68.70
17415;DHT22;8825;48.086;16.426;2022-12-29T06:10:07;1.50;68.70
17415;DHT22;8825;48.086;16.426;2022-12-29T06:12:35;1.50;68.70
17415;DHT22;8825;48.086;16.426;2022-12-29T06:15:02;1.50;68.80
17415;DHT22;8825;48.086;16.426;2022-12-29T06:17:30;1.50;68.80
17415;DHT22;8825;48.086;16.426;2022-12-29T06:19:57;1.50;69.00
17415;DHT22;8825;48.086;16.426;2022-12-29T06:22:25;1.50;69.00
17415;DHT22;8825;48.086;16.426;2022-12-29T06:24:52;1.50;69.00
17415;DHT22;8825;48.086;16.426;2022-12-29T06:27:20;1.50;69.00
17415;DHT22;8825;48.086;16.426;2022-12-29T06:29:47;1.50;68.90
17415;DHT22;8825;48.086;16.426;2022-12-29T06:32:16;1.50;68.90
17415;DHT22;8825;48.086;16.426;2022-12-29T06:34:43;1.50;68.90
17415;DHT22;8825;48.086;16.426;2022-12-29T06:37:11;1.60;68.90
17415;DHT22;8825;48.086;16.426;2022-12-29T06:39:39;1.60;68.90
17415;DHT22;8825;48.086;16.426;2022-12-29T06:42:08;1.60;68.90
17415;DHT22;8825;48.086;16.426;2022-12-29T06:44:35;1.60;68.90
17415;DHT22;8825;48.086;16.426;2022-12-29T06:47:03;1.60;69.10
17415;DHT22;8825;48.086;16.426;2022-12-29T06:49:31;1.70;69.20
17415;DHT22;8825;48.086;16.426;2022-12-29T06:51:58;1.80;69.50
17415;DHT22;8825;48.086;16.426;2022-12-29T06:54:27;1.80;69.50
17415;DHT22;8825;48.086;16.426;2022-12-29T06:56:54;1.80;69.90
17415;DHT22;8825;48.086;16.426;2022-12-29T06:59:22;1.80;70.00
17415;DHT22;8825;48.086;16.426;2022-12-29T07:01:50;1.80;70.00
17415;DHT22;8825;48.086;16.426;2022-12-29T07:04:19;1.80;69.90
17415;DHT22;8825;48.086;16.426;2022-12-29T07:06:46;1.80;69.80
17415;DHT22;8825;48.086;16.426;2022-12-29T07:09:14;1.80;69.90
17415;DHT22;8825;48.086;16.426;2022-12-29T07:11:41;1.90;69.80
17415;DHT22;8825;48.086;16.426;2022-12-29T07:14:11;1.90;69.80
17415;DHT22;8825;48.086;16.426;2022-12-29T07:16:39;1.90;69.80
17415;DHT22;8825;48.086;16.426;2022-12-29T07:19:06;2.00;69.80
17415;DHT22;8825;48.086;16.426;2022-12-29T07:21:34;2.00;70.00
17415;DHT22;8825;48.086;16.426;2022-12-29T07:24:01;2.00;69.90
17415;DHT22;8825;48.086;16.426;2022-12-29T07:26:29;2.00;70.00
17415;DHT22;8825;48.086;16.426;2022-12-29T07:28:56;2.10;70.20
17415;DHT22;8825;48.086;16.426;2022-12-29T07:31:24;2.10;71.00
17415;DHT22;8825;48.086;16.426;2022-12-29T07:33:51;2.10;70.40
17415;DHT22;8825;48.086;16.426;2022-12-29T07:36:19;2.10;70.50
17415;DHT22;8825;48.086;16.426;2022-12-29T07:38:46;2.20;70.60
17415;DHT22;8825;48.086;16.426;2022-12-29T07:41:14;2.20;70.60
17415;DHT22;8825;48.086;16.426;2022-12-29T07:43:42;2.20;70.70
17415;DHT22;8825;48.086;16.426;2022-12-29T07:46:09;2.30;70.90
17415;DHT22;8825;48.086;16.426;2022-12-29T07:48:37;2.30;70.90
17415;DHT22;8825;48.086;16.426;2022-12-29T07:51:05;2.30;71.00
17415;DHT22;8825;48.086;16.426;2022-12-29T07:53:33;2.40;71.10
17415;DHT22;8825;48.086;16.426;2022-12-29T07:56:00;2.40;71.20
17415;DHT22;8825;48.086;16.426;2022-12-29T07:58:28;2.50;71.30
17415;DHT22;8825;48.086;16.426;2022-12-29T08:00:56;2.60;71.70
17415;DHT22;8825;48.086;16.426;2022-12-29T08:03:24;2.60;71.80
17415;DHT22;8825;48.086;16.426;2022-12-29T08:05:52;2.60;71.80
17415;DHT22;8825;48.086;16.426;2022-12-29T08:08:20;2.70;71.90
17415;DHT22;8825;48.086;16.426;2022-12-29T08:10:48;2.70;72.10
17415;DHT22;8825;48.086;16.426;2022-12-29T08:13:15;2.80;72.20
17415;DHT22;8825;48.086;16.426;2022-12-29T08:15:43;2.80;72.30
17415;DHT22;8825;48.086;16.426;2022-12-29T08:18:10;2.80;72.40
17415;DHT22;8825;48.086;16.426;2022-12-29T08:20:38;2.90;72.50
17415;DHT22;8825;48.086;16.426;2022-12-29T08:23:05;2.90;72.70
17415;DHT22;8825;48.086;16.426;2022-12-29T08:25:33;3.00;72.70
17415;DHT22;8825;48.086;16.426;2022-12-29T08:28:00;3.00;72.70
17415;DHT22;8825;48.086;16.426;2022-12-29T08:30:28;3.00;72.70
17415;DHT22;8825;48.086;16.426;2022-12-29T08:32:55;3.10;72.70
17415;DHT22;8825;48.086;16.426;2022-12-29T08:35:23;3.20;72.80
17415;DHT22;8825;48.086;16.426;2022-12-29T08:37:50;3.20;72.80
17415;DHT22;8825;48.086;16.426;2022-12-29T08:40:18;3.20;72.70
17415;DHT22;8825;48.086;16.426;2022-12-29T08:42:46;3.30;72.90
17415;DHT22;8825;48.086;16.426;2022-12-29T08:45:13;3.30;72.90
17415;DHT22;8825;48.086;16.426;2022-12-29T08:47:41;3.30;72.90
17415;DHT22;8825;48.086;16.426;2022-12-29T08:50:09;3.40;73.00
17415;DHT22;8825;48.086;16.426;2022-12-29T08:52:36;3.40;73.00
17415;DHT22;8825;48.086;16.426;2022-12-29T08:55:04;3.50;73.00
17415;DHT22;8825;48.086;16.426;2022-12-29T08:57:32;3.50;72.90
17415;DHT22;8825;48.086;16.426;2022-12-29T08:59:59;3.60;72.90
17415;DHT22;8825;48.086;16.426;2022-12-29T09:02:27;3.60;72.80
17415;DHT22;8825;48.086;16.426;2022-12-29T09:04:54;3.60;72.70
17415;DHT22;8825;48.086;16.426;2022-12-29T09:07:24;3.60;72.90
17415;DHT22;8825;48.086;16.426;2022-12-29T09:09:51;3.50;72.90
17415;DHT22;8825;48.086;16.426;2022-12-29T09:12:19;3.50;72.90
17415;DHT22;8825;48.086;16.426;2022-12-29T09:14:47;3.50;73.10
17415;DHT22;8825;48.086;16.426;2022-12-29T09:17:14;3.50;73.10
17415;DHT22;8825;48.086;16.426;2022-12-29T09:19:59;3.40;73.20
17415;DHT22;8825;48.086;16.426;2022-12-29T09:22:27;3.40;73.40
17415;DHT22;8825;48.086;16.426;2022-12-29T09:24:54;3.40;73.60
17415;DHT22;8825;48.086;16.426;2022-12-29T09:27:22;3.40;73.50
17415;DHT22;8825;48.086;16.426;2022-12-29T09:29:49;3.50;74.60
17415;DHT22;8825;48.086;16.426;2022-12-29T09:32:17;3.50;74.50
17415;DHT22;8825;48.086;16.426;2022-12-29T09:34:44;3.50;73.90
17415;DHT22;8825;48.086;16.426;2022-12-29T09:37:12;3.60;73.90
17415;DHT22;8825;48.086;16.426;2022-12-29T09:39:39;3.60;73.90
17415;DHT22;8825;48.086;16.426;2022-12-29T09:42:13;3.70;74.10
17415;DHT22;8825;48.086;16.426;2022-12-29T09:44:49;3.70;74.00
17415;DHT22;8825;48.086;16.426;2022-12-29T09:47:18;3.80;74.10
17415;DHT22;8825;48.086;16.426;2022-12-29T09:49:52;3.80;74.10
17415;DHT22;8825;48.086;16.426;2022-12-29T09:52:20;3.80;74.10
17415;DHT22;8825;48.086;16.426;2022-12-29T09:54:58;3.80;74.50
17415;DHT22;8825;48.086;16.426;2022-12-29T09:57:45;3.90;74.30
17415;DHT22;8825;48.086;16.426;2022-12-29T10:00:18;3.90;74.50
17415;DHT22;8825;48.086;16.426;2022-12-29T10:02:54;3.90;74.40
17415;DHT22;8825;48.086;16.426;2022-12-29T10:05:39;3.90;74.40
17415;DHT22;8825;48.086;16.426;2022-12-29T10:10:48;4.00;74.50
17415;DHT22;8825;48.086;16.426;2022-12-29T10:13:46;4.00;74.60
17415;DHT22;8825;48.086;16.426;2022-12-29T10:16:33;4.10;74.70
17415;DHT22;8825;48.086;16.426;2022-12-29T10:22:04;4.10;74.60
17415;DHT22;8825;48.086;16.426;2022-12-29T10:24:29;4.10;74.70
17415;DHT22;8825;48.086;16.426;2022-12-29T10:26:59;4.20;75.00
17415;DHT22;8825;48.086;16.426;2022-12-29T10:29:30;4.20;74.90
17415;DHT22;8825;48.086;16.426;2022-12-29T10:32:00;4.30;74.90
17415;DHT22;8825;48.086;16.426;2022-12-29T10:40:02;4.50;74.90
17415;DHT22;8825;48.086;16.426;2022-12-29T10:42:42;4.50;74.90
17415;DHT22;8825;48.086;16.426;2022-12-29T10:45:13;4.50;74.90
17415;DHT22;8825;48.086;16.426;2022-12-29T10:47:40;4.50;74.90
17415;DHT22;8825;48.086;16.426;2022-12-29T10:50:11;4.50;75.00
17415;DHT22;8825;48.086;16.426;2022-12-29T10:52:39;4.60;75.00
17415;DHT22;8825;48.086;16.426;2022-12-29T10:55:12;4.70;75.00
17415;DHT22;8825;48.086;16.426;2022-12-29T10:57:43;4.70;74.90
17415;DHT22;8825;48.086;16.426;2022-12-29T11:00:16;4.70;74.80
17415;DHT22;8825;48.086;16.426;2022-12-29T11:02:58;4.80;74.70
17415;DHT22;8825;48.086;16.426;2022-12-29T11:05:37;4.80;74.70
17415;DHT22;8825;48.086;16.426;2022-12-29T11:08:17;4.90;74.80
17415;DHT22;8825;48.086;16.426;2022-12-29T11:10:45;5.00;74.60
17415;DHT22;8825;48.086;16.426;2022-12-29T11:13:18;4.90;74.70
17415;DHT22;8825;48.086;16.426;2022-12-29T11:15:49;4.80;74.80
17415;DHT22;8825;48.086;16.426;2022-12-29T11:18:23;4.70;75.20
17415;DHT22;8825;48.086;16.426;2022-12-29T11:20:56;4.60;75.30
17415;DHT22;8825;48.086;16.426;2022-12-29T11:26:13;4.60;75.70
17415;DHT22;8825;48.086;16.426;2022-12-29T11:28:44;4.60;75.90
17415;DHT22;8825;48.086;16.426;2022-12-29T11:31:17;4.60;75.90
17415;DHT22;8825;48.086;16.426;2022-12-29T11:33:45;4.60;75.90
17415;DHT22;8825;48.086;16.426;2022-12-29T11:36:19;4.70;76.00
17415;DHT22;8825;48.086;16.426;2022-12-29T11:38:52;4.80;76.00
17415;DHT22;8825;48.086;16.426;2022-12-29T11:41:25;4.80;76.00
17415;DHT22;8825;48.086;16.426;2022-12-29T11:43:55;4.90;75.80
17415;DHT22;8825;48.086;16.426;2022-12-29T11:46:28;5.00;75.80
17415;DHT22;8825;48.086;16.426;2022-12-29T11:48:58;5.00;75.50
17415;DHT22;8825;48.086;16.426;2022-12-29T11:51:34;5.00;75.50
17415;DHT22;8825;48.086;16.426;2022-12-29T11:53:59;5.00;75.40
17415;DHT22;8825;48.086;16.426;2022-12-29T11:56:37;5.00;75.40
17415;DHT22;8825;48.086;16.426;2022-12-29T12:01:58;5.00;75.30
17415;DHT22;8825;48.086;16.426;2022-12-29T12:04:32;5.10;75.30
17415;DHT22;8825;48.086;16.426;2022-12-29T12:09:48;5.10;75.20
17415;DHT22;8825;48.086;16.426;2022-12-29T12:12:39;5.10;75.10
17415;DHT22;8825;48.086;16.426;2022-12-29T12:14:55;5.20;75.30
17415;DHT22;8825;48.086;16.426;2022-12-29T12:20:26;5.20;75.40
17415;DHT22;8825;48.086;16.426;2022-12-29T12:22:58;5.10;75.30
17415;DHT22;8825;48.086;16.426;2022-12-29T12:25:25;5.10;75.40
17415;DHT22;8825;48.086;16.426;2022-12-29T12:28:10;5.20;75.50
17415;DHT22;8825;48.086;16.426;2022-12-29T12:30:48;5.20;75.40
17415;DHT22;8825;48.086;16.426;2022-12-29T12:33:29;5.30;75.40
17415;DHT22;8825;48.086;16.426;2022-12-29T12:36:53;5.30;75.30
17415;DHT22;8825;48.086;16.426;2022-12-29T12:38:58;5.30;75.30
17415;DHT22;8825;48.086;16.426;2022-12-29T12:41:32;5.40;75.30
17415;DHT22;8825;48.086;16.426;2022-12-29T12:44:10;5.40;75.40
17415;DHT22;8825;48.086;16.426;2022-12-29T12:49:53;5.40;75.40
17415;DHT22;8825;48.086;16.426;2022-12-29T12:55:30;5.30;76.30
17415;DHT22;8825;48.086;16.426;2022-12-29T12:58:15;5.30;75.70
17415;DHT22;8825;48.086;16.426;2022-12-29T13:03:50;5.30;75.80
17415;DHT22;8825;48.086;16.426;2022-12-29T13:09:16;5.30;75.90
17415;DHT22;8825;48.086;16.426;2022-12-29T13:14:24;5.30;76.00
17415;DHT22;8825;48.086;16.426;2022-12-29T13:16:59;5.30;76.10
17415;DHT22;8825;48.086;16.426;2022-12-29T13:19:28;5.40;76.00
17415;DHT22;8825;48.086;16.426;2022-12-29T13:22:07;5.40;75.90
17415;DHT22;8825;48.086;16.426;2022-12-29T13:24:58;5.40;75.80
17415;DHT22;8825;48.086;16.426;2022-12-29T13:27:30;5.50;75.80
17415;DHT22;8825;48.086;16.426;2022-12-29T13:30:14;5.50;75.70
17415;DHT22;8825;48.086;16.426;2022-12-29T13:35:52;5.40;75.70
17415;DHT22;8825;48.086;16.426;2022-12-29T13:38:20;5.40;75.70
17415;DHT22;8825;48.086;16.426;2022-12-29T13:40:54;5.40;76.60
17415;DHT22;8825;48.086;16.426;2022-12-29T13:43:20;5.50;75.80
17415;DHT22;8825;48.086;16.426;2022-12-29T13:45:50;5.50;75.80
17415;DHT22;8825;48.086;16.426;2022-12-29T13:48:21;5.50;75.70
17415;DHT22;8825;48.086;16.426;2022-12-29T13:53:56;5.50;75.60
17415;DHT22;8825;48.086;16.426;2022-12-29T13:59:21;5.50;75.50
17415;DHT22;8825;48.086;16.426;2022-12-29T14:01:59;5.50;76.30
17415;DHT22;8825;48.086;16.426;2022-12-29T14:04:29;5.50;75.60
17415;DHT22;8825;48.086;16.426;2022-12-29T14:07:12;5.40;75.60
17415;DHT22;8825;48.086;16.426;2022-12-29T14:09:46;5.50;75.70
17415;DHT22;8825;48.086;16.426;2022-12-29T14:12:27;5.50;75.70
17415;DHT22;8825;48.086;16.426;2022-12-29T14:14:51;5.40;75.70
17415;DHT22;8825;48.086;16.426;2022-12-29T14:17:20;5.40;75.80
17415;DHT22;8825;48.086;16.426;2022-12-29T14:19:51;5.40;75.90
17415;DHT22;8825;48.086;16.426;2022-12-29T14:22:26;5.30;75.70
17415;DHT22;8825;48.086;16.426;2022-12-29T14:24:54;5.30;75.60
17415;DHT22;8825;48.086;16.426;2022-12-29T14:29:58;5.30;75.70
17415;DHT22;8825;48.086;16.426;2022-12-29T14:35:00;5.30;75.80
17415;DHT22;8825;48.086;16.426;2022-12-29T14:37:34;5.20;75.70
17415;DHT22;8825;48.086;16.426;2022-12-29T14:40:25;5.20;75.70
17415;DHT22;8825;48.086;16.426;2022-12-29T14:42:33;5.30;75.60
17415;DHT22;8825;48.086;16.426;2022-12-29T14:47:36;5.20;75.40
17415;DHT22;8825;48.086;16.426;2022-12-29T14:50:16;5.20;75.20
17415;DHT22;8825;48.086;16.426;2022-12-29T14:52:55;5.20;75.20
17415;DHT22;8825;48.086;16.426;2022-12-29T14:55:45;5.20;75.10
17415;DHT22;8825;48.086;16.426;2022-12-29T14:58:22;5.20;75.00
17415;DHT22;8825;48.086;16.426;2022-12-29T15:00:49;5.20;75.10
17415;DHT22;8825;48.086;16.426;2022-12-29T15:03:44;5.10;75.00
17415;DHT22;8825;48.086;16.426;2022-12-29T15:06:14;5.10;75.20
17415;DHT22;8825;48.086;16.426;2022-12-29T15:11:23;5.00;75.40
17415;DHT22;8825;48.086;16.426;2022-12-29T15:13:51;4.90;75.60
17415;DHT22;8825;48.086;16.426;2022-12-29T15:16:29;4.90;75.70
17415;DHT22;8825;48.086;16.426;2022-12-29T15:18:55;4.90;76.00
17415;DHT22;8825;48.086;16.426;2022-12-29T15:21:28;4.90;75.90
17415;DHT22;8825;48.086;16.426;2022-12-29T15:23:56;4.90;75.90
17415;DHT22;8825;48.086;16.426;2022-12-29T15:26:41;4.90;75.90
17415;DHT22;8825;48.086;16.426;2022-12-29T15:32:02;4.80;76.00
17415;DHT22;8825;48.086;16.426;2022-12-29T15:34:31;4.70;76.10
17415;DHT22;8825;48.086;16.426;2022-12-29T15:36:58;4.70;76.20
17415;DHT22;8825;48.086;16.426;2022-12-29T15:39:30;4.70;76.50
17415;DHT22;8825;48.086;16.426;2022-12-29T15:42:05;4.60;76.70
17415;DHT22;8825;48.086;16.426;2022-12-29T15:44:37;4.60;76.80
17415;DHT22;8825;48.086;16.426;2022-12-29T15:47:29;4.50;77.00
17415;DHT22;8825;48.086;16.426;2022-12-29T15:49:36;4.50;77.20
17415;DHT22;8825;48.086;16.426;2022-12-29T15:52:08;4.50;77.10
17415;DHT22;8825;48.086;16.426;2022-12-29T15:54:37;4.50;77.00
17415;DHT22;8825;48.086;16.426;2022-12-29T15:57:10;4.50;77.10
17415;DHT22;8825;48.086;16.426;2022-12-29T15:59:35;4.50;77.20
17415;DHT22;8825;48.086;16.426;2022-12-29T16:02:07;4.50;77.20
17415;DHT22;8825;48.086;16.426;2022-12-29T16:04:32;4.50;77.10
17415;DHT22;8825;48.086;16.426;2022-12-29T16:07:05;4.60;77.00
17415;DHT22;8825;48.086;16.426;2022-12-29T16:09:58;4.50;76.90
17415;DHT22;8825;48.086;16.426;2022-12-29T16:12:07;4.50;76.80
17415;DHT22;8825;48.086;16.426;2022-12-29T16:14:46;4.50;76.90
17415;DHT22;8825;48.086;16.426;2022-12-29T16:17:17;4.50;76.90
17415;DHT22;8825;48.086;16.426;2022-12-29T16:19:53;4.50;76.90
17415;DHT22;8825;48.086;16.426;2022-12-29T16:25:24;4.50;77.00
17415;DHT22;8825;48.086;16.426;2022-12-29T16:27:52;4.40;77.10
17415;DHT22;8825;48.086;16.426;2022-12-29T16:30:25;4.40;77.10
17415;DHT22;8825;48.086;16.426;2022-12-29T16:32:56;4.40;77.00
17415;DHT22;8825;48.086;16.426;2022-12-29T16:38:18;4.40;77.20
17415;DHT22;8825;48.086;16.426;2022-12-29T16:43:35;4.40;77.30
17415;DHT22;8825;48.086;16.426;2022-12-29T16:48:48;4.40;77.40
17415;DHT22;8825;48.086;16.426;2022-12-29T16:51:20;4.40;77.30
17415;DHT22;8825;48.086;16.426;2022-12-29T16:53:53;4.30;77.30
17415;DHT22;8825;48.086;16.426;2022-12-29T16:56:24;4.30;77.40
17415;DHT22;8825;48.086;16.426;2022-12-29T16:59:09;4.30;77.30
17415;DHT22;8825;48.086;16.426;2022-12-29T17:01:39;4.30;77.30
17415;DHT22;8825;48.086;16.426;2022-12-29T17:04:08;4.30;77.20
17415;DHT22;8825;48.086;16.426;2022-12-29T17:06:37;4.30;77.10
17415;DHT22;8825;48.086;16.426;2022-12-29T17:09:25;4.30;77.10
17415;DHT22;8825;48.086;16.426;2022-12-29T17:11:55;4.30;76.80
17415;DHT22;8825;48.086;16.426;2022-12-29T17:14:48;4.30;76.60
17415;DHT22;8825;48.086;16.426;2022-12-29T17:19:56;4.10;76.60
17415;DHT22;8825;48.086;16.426;2022-12-29T17:22:26;4.00;76.70
17415;DHT22;8825;48.086;16.426;2022-12-29T17:24:56;3.90;76.70
17415;DHT22;8825;48.086;16.426;2022-12-29T17:27:27;3.90;77.60
17415;DHT22;8825;48.086;16.426;2022-12-29T17:29:57;3.80;77.00
17415;DHT22;8825;48.086;16.426;2022-12-29T17:32:26;3.70;77.20
17415;DHT22;8825;48.086;16.426;2022-12-29T17:34:54;3.70;77.40
17415;DHT22;8825;48.086;16.426;2022-12-29T17:37:27;3.60;77.40
17415;DHT22;8825;48.086;16.426;2022-12-29T17:39:54;3.60;77.70
17415;DHT22;8825;48.086;16.426;2022-12-29T17:42:22;3.50;78.00
17415;DHT22;8825;48.086;16.426;2022-12-29T17:44:50;3.40;78.00
17415;DHT22;8825;48.086;16.426;2022-12-29T17:47:18;3.40;78.10
17415;DHT22;8825;48.086;16.426;2022-12-29T17:49:45;3.40;79.00
17415;DHT22;8825;48.086;16.426;2022-12-29T17:52:14;3.40;78.20
17415;DHT22;8825;48.086;16.426;2022-12-29T17:54:52;3.40;78.10